sensor_id;sensor_type;location;lat;lon;timestamp;P1;durP1;ratioP1;P2;durP2;ratioP2
5999;SDS011;3028;49.468;7.694;2023-06-26T00:00:04;7.00;;;6.40;;
5999;SDS011;3028;49.468;7.694;2023-06-26T00:02:09;6.00;;;5.60;;
5999;SDS011;3028;49.468;7.694;2023-06-26T00:04:11;6.25;;;5.80;;
5999;SDS011;3028;49.468;7.694;2023-06-26T00:06:16;5.40;;;5.00;;
5999;SDS011;3028;49.468;7.694;2023-06-26T00:08:17;6.40;;;5.90;;
5999;SDS011;3028;49.468;7.694;2023-06-26T00:10:19;6.07;;;5.57;;
5999;SDS011;3028;49.468;7.694;2023-06-26T00:12:21;5.57;;;5.13;;
5999;SDS011;3028;49.468;7.694;2023-06-26T00:14:22;6.10;;;5.70;;
5999;SDS011;3028;49.468;7.694;2023-06-26T00:16:24;5.47;;;5.07;;
5999;SDS011;3028;49.468;7.694;2023-06-26T00:18:26;5.53;;;5.13;;
5999;SDS011;3028;49.468;7.694;2023-06-26T00:20:28;6.38;;;5.88;;
5999;SDS011;3028;49.468;7.694;2023-06-26T00:22:29;6.10;;;5.60;;
5999;SDS011;3028;49.468;7.694;2023-06-26T00:24:31;5.35;;;4.95;;
5999;SDS011;3028;49.468;7.694;2023-06-26T00:26:33;6.45;;;5.85;;
5999;SDS011;3028;49.468;7.694;2023-06-26T00:28:35;6.70;;;5.07;;
5999;SDS011;3028;49.468;7.694;2023-06-26T00:30:36;6.03;;;5.63;;
5999;SDS011;3028;49.468;7.694;2023-06-26T00:32:39;5.93;;;5.47;;
5999;SDS011;3028;49.468;7.694;2023-06-26T00:34:41;6.10;;;5.60;;
5999;SDS011;3028;49.468;7.694;2023-06-26T00:36:42;6.15;;;5.70;;
5999;SDS011;3028;49.468;7.694;2023-06-26T00:38:45;6.57;;;6.05;;
5999;SDS011;3028;49.468;7.694;2023-06-26T00:40:47;7.22;;;6.72;;
5999;SDS011;3028;49.468;7.694;2023-06-26T00:42:49;6.32;;;5.90;;
5999;SDS011;3028;49.468;7.694;2023-06-26T00:44:51;6.57;;;6.07;;
5999;SDS011;3028;49.468;7.694;2023-06-26T00:46:53;5.95;;;5.55;;
5999;SDS011;3028;49.468;7.694;2023-06-26T00:48:54;6.05;;;5.65;;
5999;SDS011;3028;49.468;7.694;2023-06-26T00:50:57;5.97;;;5.57;;
5999;SDS011;3028;49.468;7.694;2023-06-26T00:52:59;7.32;;;5.80;;
5999;SDS011;3028;49.468;7.694;2023-06-26T00:55:02;6.63;;;6.03;;
5999;SDS011;3028;49.468;7.694;2023-06-26T00:57:05;5.93;;;5.43;;
5999;SDS011;3028;49.468;7.694;2023-06-26T00:59:07;6.38;;;5.78;;
5999;SDS011;3028;49.468;7.694;2023-06-26T01:01:08;6.32;;;5.82;;
5999;SDS011;3028;49.468;7.694;2023-06-26T01:03:15;6.35;;;5.90;;
5999;SDS011;3028;49.468;7.694;2023-06-26T01:05:17;6.82;;;6.32;;
5999;SDS011;3028;49.468;7.694;2023-06-26T01:07:22;6.25;;;5.85;;
5999;SDS011;3028;49.468;7.694;2023-06-26T01:09:24;6.68;;;6.18;;
5999;SDS011;3028;49.468;7.694;2023-06-26T01:11:26;6.20;;;5.75;;
5999;SDS011;3028;49.468;7.694;2023-06-26T01:13:28;6.15;;;5.65;;
5999;SDS011;3028;49.468;7.694;2023-06-26T01:15:31;6.47;;;5.97;;
5999;SDS011;3028;49.468;7.694;2023-06-26T01:17:33;6.50;;;6.00;;
5999;SDS011;3028;49.468;7.694;2023-06-26T01:19:34;7.60;;;6.90;;
5999;SDS011;3028;49.468;7.694;2023-06-26T01:21:37;7.65;;;7.00;;
5999;SDS011;3028;49.468;7.694;2023-06-26T01:23:46;6.85;;;6.35;;
5999;SDS011;3028;49.468;7.694;2023-06-26T01:28:09;6.28;;;5.78;;
5999;SDS011;3028;49.468;7.694;2023-06-26T01:30:11;5.90;;;5.50;;
5999;SDS011;3028;49.468;7.694;2023-06-26T01:32:13;6.60;;;5.82;;
5999;SDS011;3028;49.468;7.694;2023-06-26T01:34:16;5.90;;;5.50;;
5999;SDS011;3028;49.468;7.694;2023-06-26T01:36:18;6.78;;;6.20;;
5999;SDS011;3028;49.468;7.694;2023-06-26T01:38:21;6.18;;;5.68;;
5999;SDS011;3028;49.468;7.694;2023-06-26T01:40:24;6.03;;;5.60;;
5999;SDS011;3028;49.468;7.694;2023-06-26T01:42:26;6.13;;;5.63;;
5999;SDS011;3028;49.468;7.694;2023-06-26T01:44:29;4.97;;;4.60;;
5999;SDS011;3028;49.468;7.694;2023-06-26T01:46:42;6.13;;;5.53;;
5999;SDS011;3028;49.468;7.694;2023-06-26T01:51:17;7.28;;;6.10;;
5999;SDS011;3028;49.468;7.694;2023-06-26T01:53:21;6.20;;;5.70;;
5999;SDS011;3028;49.468;7.694;2023-06-26T01:56:03;6.13;;;5.72;;
5999;SDS011;3028;49.468;7.694;2023-06-26T01:57:56;6.53;;;6.05;;
5999;SDS011;3028;49.468;7.694;2023-06-26T02:00:00;6.38;;;5.90;;
5999;SDS011;3028;49.468;7.694;2023-06-26T02:02:02;6.18;;;5.75;;
5999;SDS011;3028;49.468;7.694;2023-06-26T02:04:09;7.85;;;6.32;;
5999;SDS011;3028;49.468;7.694;2023-06-26T02:06:10;6.55;;;6.05;;
5999;SDS011;3028;49.468;7.694;2023-06-26T02:08:13;6.82;;;6.30;;
5999;SDS011;3028;49.468;7.694;2023-06-26T02:10:15;6.38;;;5.90;;
5999;SDS011;3028;49.468;7.694;2023-06-26T02:12:17;5.50;;;5.10;;
5999;SDS011;3028;49.468;7.694;2023-06-26T02:14:19;7.68;;;6.97;;
5999;SDS011;3028;49.468;7.694;2023-06-26T02:16:21;6.05;;;5.55;;
5999;SDS011;3028;49.468;7.694;2023-06-26T02:18:23;7.15;;;6.55;;
5999;SDS011;3028;49.468;7.694;2023-06-26T02:20:25;6.57;;;6.07;;
5999;SDS011;3028;49.468;7.694;2023-06-26T02:22:27;6.13;;;5.65;;
5999;SDS011;3028;49.468;7.694;2023-06-26T02:24:29;6.97;;;6.47;;
5999;SDS011;3028;49.468;7.694;2023-06-26T02:26:32;5.85;;;5.45;;
5999;SDS011;3028;49.468;7.694;2023-06-26T02:28:33;6.53;;;6.03;;
5999;SDS011;3028;49.468;7.694;2023-06-26T02:30:35;6.07;;;5.57;;
5999;SDS011;3028;49.468;7.694;2023-06-26T02:32:38;6.03;;;5.60;;
5999;SDS011;3028;49.468;7.694;2023-06-26T02:34:40;5.60;;;5.20;;
5999;SDS011;3028;49.468;7.694;2023-06-26T02:36:41;7.75;;;7.15;;
5999;SDS011;3028;49.468;7.694;2023-06-26T02:38:43;6.03;;;5.43;;
5999;SDS011;3028;49.468;7.694;2023-06-26T02:40:45;6.63;;;6.15;;
5999;SDS011;3028;49.468;7.694;2023-06-26T02:42:46;6.82;;;6.32;;
5999;SDS011;3028;49.468;7.694;2023-06-26T02:44:48;7.68;;;7.03;;
5999;SDS011;3028;49.468;7.694;2023-06-26T02:46:50;6.72;;;6.22;;
5999;SDS011;3028;49.468;7.694;2023-06-26T02:48:51;6.40;;;6.00;;
5999;SDS011;3028;49.468;7.694;2023-06-26T02:50:53;6.10;;;5.65;;
5999;SDS011;3028;49.468;7.694;2023-06-26T02:52:55;6.70;;;6.20;;
5999;SDS011;3028;49.468;7.694;2023-06-26T02:54:56;5.93;;;5.53;;
5999;SDS011;3028;49.468;7.694;2023-06-26T02:56:58;6.65;;;5.95;;
5999;SDS011;3028;49.468;7.694;2023-06-26T02:59:00;8.45;;;5.90;;
5999;SDS011;3028;49.468;7.694;2023-06-26T03:01:02;6.70;;;6.20;;
5999;SDS011;3028;49.468;7.694;2023-06-26T03:03:04;6.97;;;6.47;;
5999;SDS011;3028;49.468;7.694;2023-06-26T03:05:06;5.97;;;5.57;;
5999;SDS011;3028;49.468;7.694;2023-06-26T03:07:08;7.53;;;6.82;;
5999;SDS011;3028;49.468;7.694;2023-06-26T03:09:10;6.18;;;5.68;;
5999;SDS011;3028;49.468;7.694;2023-06-26T03:11:12;6.45;;;5.95;;
5999;SDS011;3028;49.468;7.694;2023-06-26T03:13:13;8.02;;;7.32;;
5999;SDS011;3028;49.468;7.694;2023-06-26T03:15:15;6.15;;;5.30;;
5999;SDS011;3028;49.468;7.694;2023-06-26T03:17:19;7.20;;;6.60;;
5999;SDS011;3028;49.468;7.694;2023-06-26T03:19:22;6.35;;;5.85;;
5999;SDS011;3028;49.468;7.694;2023-06-26T03:21:23;6.45;;;5.95;;
5999;SDS011;3028;49.468;7.694;2023-06-26T03:23:25;7.25;;;6.65;;
5999;SDS011;3028;49.468;7.694;2023-06-26T03:25:27;5.93;;;5.53;;
5999;SDS011;3028;49.468;7.694;2023-06-26T03:27:28;7.45;;;6.85;;
5999;SDS011;3028;49.468;7.694;2023-06-26T03:29:30;6.78;;;6.28;;
5999;SDS011;3028;49.468;7.694;2023-06-26T03:31:32;12.75;;;6.90;;
5999;SDS011;3028;49.468;7.694;2023-06-26T03:33:33;7.32;;;6.82;;
5999;SDS011;3028;49.468;7.694;2023-06-26T03:35:35;6.20;;;5.70;;
5999;SDS011;3028;49.468;7.694;2023-06-26T03:37:37;7.53;;;6.88;;
5999;SDS011;3028;49.468;7.694;2023-06-26T03:39:39;6.82;;;6.32;;
5999;SDS011;3028;49.468;7.694;2023-06-26T03:41:40;6.35;;;5.85;;
5999;SDS011;3028;49.468;7.694;2023-06-26T03:43:42;6.63;;;6.13;;
5999;SDS011;3028;49.468;7.694;2023-06-26T03:45:44;6.88;;;6.38;;
5999;SDS011;3028;49.468;7.694;2023-06-26T03:47:46;5.85;;;5.40;;
5999;SDS011;3028;49.468;7.694;2023-06-26T03:49:51;6.65;;;6.15;;
5999;SDS011;3028;49.468;7.694;2023-06-26T03:51:53;7.78;;;7.18;;
5999;SDS011;3028;49.468;7.694;2023-06-26T03:53:54;7.22;;;6.57;;
5999;SDS011;3028;49.468;7.694;2023-06-26T03:55:59;6.28;;;5.78;;
5999;SDS011;3028;49.468;7.694;2023-06-26T03:58:01;7.45;;;6.53;;
5999;SDS011;3028;49.468;7.694;2023-06-26T04:00:03;6.80;;;6.30;;
5999;SDS011;3028;49.468;7.694;2023-06-26T04:02:10;6.53;;;5.97;;
5999;SDS011;3028;49.468;7.694;2023-06-26T04:04:14;6.47;;;6.03;;
5999;SDS011;3028;49.468;7.694;2023-06-26T04:06:16;7.25;;;6.72;;
5999;SDS011;3028;49.468;7.694;2023-06-26T04:08:17;7.35;;;6.85;;
5999;SDS011;3028;49.468;7.694;2023-06-26T04:10:21;7.57;;;6.88;;
5999;SDS011;3028;49.468;7.694;2023-06-26T04:12:22;5.93;;;5.47;;
5999;SDS011;3028;49.468;7.694;2023-06-26T04:14:24;6.93;;;6.38;;
5999;SDS011;3028;49.468;7.694;2023-06-26T04:16:26;8.20;;;7.60;;
5999;SDS011;3028;49.468;7.694;2023-06-26T04:18:28;8.52;;;7.82;;
5999;SDS011;3028;49.468;7.694;2023-06-26T04:20:29;7.72;;;7.03;;
5999;SDS011;3028;49.468;7.694;2023-06-26T04:22:32;7.30;;;6.70;;
5999;SDS011;3028;49.468;7.694;2023-06-26T04:24:34;7.43;;;6.82;;
5999;SDS011;3028;49.468;7.694;2023-06-26T04:26:36;7.40;;;6.80;;
5999;SDS011;3028;49.468;7.694;2023-06-26T04:28:38;6.65;;;6.00;;
5999;SDS011;3028;49.468;7.694;2023-06-26T04:30:40;7.45;;;6.95;;
5999;SDS011;3028;49.468;7.694;2023-06-26T04:32:42;7.03;;;6.53;;
5999;SDS011;3028;49.468;7.694;2023-06-26T04:34:43;7.25;;;6.75;;
5999;SDS011;3028;49.468;7.694;2023-06-26T04:36:45;6.75;;;6.25;;
5999;SDS011;3028;49.468;7.694;2023-06-26T04:38:49;6.40;;;5.90;;
5999;SDS011;3028;49.468;7.694;2023-06-26T04:40:51;7.50;;;7.00;;
5999;SDS011;3028;49.468;7.694;2023-06-26T04:42:52;7.10;;;6.60;;
5999;SDS011;3028;49.468;7.694;2023-06-26T04:44:54;6.82;;;6.30;;
5999;SDS011;3028;49.468;7.694;2023-06-26T04:46:56;7.47;;;6.88;;
5999;SDS011;3028;49.468;7.694;2023-06-26T04:48:58;10.07;;;6.63;;
5999;SDS011;3028;49.468;7.694;2023-06-26T04:50:59;8.35;;;7.30;;
5999;SDS011;3028;49.468;7.694;2023-06-26T04:53:02;7.88;;;7.28;;
5999;SDS011;3028;49.468;7.694;2023-06-26T04:55:04;7.15;;;6.55;;
5999;SDS011;3028;49.468;7.694;2023-06-26T04:57:06;7.35;;;6.75;;
5999;SDS011;3028;49.468;7.694;2023-06-26T04:59:10;6.88;;;6.38;;
5999;SDS011;3028;49.468;7.694;2023-06-26T05:01:14;6.90;;;6.40;;
5999;SDS011;3028;49.468;7.694;2023-06-26T05:03:17;7.05;;;6.45;;
5999;SDS011;3028;49.468;7.694;2023-06-26T05:05:19;8.05;;;7.45;;
5999;SDS011;3028;49.468;7.694;2023-06-26T05:07:21;7.53;;;6.97;;
5999;SDS011;3028;49.468;7.694;2023-06-26T05:09:22;7.30;;;6.80;;
5999;SDS011;3028;49.468;7.694;2023-06-26T05:11:24;7.80;;;7.25;;
5999;SDS011;3028;49.468;7.694;2023-06-26T05:13:26;8.30;;;7.70;;
5999;SDS011;3028;49.468;7.694;2023-06-26T05:15:28;7.75;;;7.15;;
5999;SDS011;3028;49.468;7.694;2023-06-26T05:17:30;6.80;;;6.30;;
5999;SDS011;3028;49.468;7.694;2023-06-26T05:19:31;7.05;;;6.45;;
5999;SDS011;3028;49.468;7.694;2023-06-26T05:21:33;7.20;;;6.68;;
5999;SDS011;3028;49.468;7.694;2023-06-26T05:23:36;7.22;;;6.63;;
5999;SDS011;3028;49.468;7.694;2023-06-26T05:25:38;7.03;;;6.53;;
5999;SDS011;3028;49.468;7.694;2023-06-26T05:27:40;7.85;;;7.25;;
5999;SDS011;3028;49.468;7.694;2023-06-26T05:29:42;7.95;;;7.15;;
5999;SDS011;3028;49.468;7.694;2023-06-26T05:31:44;6.10;;;5.65;;
5999;SDS011;3028;49.468;7.694;2023-06-26T05:33:46;6.22;;;5.80;;
5999;SDS011;3028;49.468;7.694;2023-06-26T05:35:48;6.70;;;6.20;;
5999;SDS011;3028;49.468;7.694;2023-06-26T05:37:50;7.53;;;6.82;;
5999;SDS011;3028;49.468;7.694;2023-06-26T05:39:53;7.72;;;7.03;;
5999;SDS011;3028;49.468;7.694;2023-06-26T05:41:56;7.72;;;7.22;;
5999;SDS011;3028;49.468;7.694;2023-06-26T05:43:58;6.95;;;6.45;;
5999;SDS011;3028;49.468;7.694;2023-06-26T05:46:00;7.65;;;7.05;;
5999;SDS011;3028;49.468;7.694;2023-06-26T05:48:02;9.70;;;8.13;;
5999;SDS011;3028;49.468;7.694;2023-06-26T05:50:04;9.15;;;8.35;;
5999;SDS011;3028;49.468;7.694;2023-06-26T05:52:07;7.55;;;7.05;;
5999;SDS011;3028;49.468;7.694;2023-06-26T05:54:11;7.80;;;7.25;;
5999;SDS011;3028;49.468;7.694;2023-06-26T05:56:15;7.70;;;7.18;;
5999;SDS011;3028;49.468;7.694;2023-06-26T05:58:16;9.55;;;7.95;;
5999;SDS011;3028;49.468;7.694;2023-06-26T06:00:19;7.13;;;6.63;;
5999;SDS011;3028;49.468;7.694;2023-06-26T06:02:22;8.02;;;7.30;;
5999;SDS011;3028;49.468;7.694;2023-06-26T06:04:24;7.40;;;6.88;;
5999;SDS011;3028;49.468;7.694;2023-06-26T06:06:25;7.40;;;6.90;;
5999;SDS011;3028;49.468;7.694;2023-06-26T06:08:27;7.60;;;7.07;;
5999;SDS011;3028;49.468;7.694;2023-06-26T06:10:29;6.88;;;6.38;;
5999;SDS011;3028;49.468;7.694;2023-06-26T06:12:31;7.35;;;6.85;;
5999;SDS011;3028;49.468;7.694;2023-06-26T06:14:33;7.82;;;7.10;;
5999;SDS011;3028;49.468;7.694;2023-06-26T06:16:36;7.43;;;6.93;;
5999;SDS011;3028;49.468;7.694;2023-06-26T06:18:37;7.00;;;6.13;;
5999;SDS011;3028;49.468;7.694;2023-06-26T06:20:39;6.07;;;5.68;;
5999;SDS011;3028;49.468;7.694;2023-06-26T06:22:42;6.07;;;5.57;;
5999;SDS011;3028;49.468;7.694;2023-06-26T06:24:43;7.00;;;6.45;;
5999;SDS011;3028;49.468;7.694;2023-06-26T06:26:45;6.55;;;6.07;;
5999;SDS011;3028;49.468;7.694;2023-06-26T06:28:47;6.78;;;6.28;;
5999;SDS011;3028;49.468;7.694;2023-06-26T06:30:49;6.30;;;5.82;;
5999;SDS011;3028;49.468;7.694;2023-06-26T06:32:51;6.15;;;5.65;;
5999;SDS011;3028;49.468;7.694;2023-06-26T06:34:54;5.95;;;5.55;;
5999;SDS011;3028;49.468;7.694;2023-06-26T06:36:56;6.25;;;5.75;;
5999;SDS011;3028;49.468;7.694;2023-06-26T06:38:57;5.57;;;5.07;;
5999;SDS011;3028;49.468;7.694;2023-06-26T06:40:59;5.28;;;4.82;;
5999;SDS011;3028;49.468;7.694;2023-06-26T06:43:01;6.53;;;4.78;;
5999;SDS011;3028;49.468;7.694;2023-06-26T06:45:03;5.68;;;5.18;;
5999;SDS011;3028;49.468;7.694;2023-06-26T06:47:11;5.32;;;4.88;;
5999;SDS011;3028;49.468;7.694;2023-06-26T06:49:13;6.22;;;5.75;;
5999;SDS011;3028;49.468;7.694;2023-06-26T06:51:15;6.30;;;4.95;;
5999;SDS011;3028;49.468;7.694;2023-06-26T06:53:17;5.97;;;5.47;;
5999;SDS011;3028;49.468;7.694;2023-06-26T06:55:21;5.25;;;4.72;;
5999;SDS011;3028;49.468;7.694;2023-06-26T06:57:24;6.55;;;6.05;;
5999;SDS011;3028;49.468;7.694;2023-06-26T06:59:26;5.65;;;4.97;;
5999;SDS011;3028;49.468;7.694;2023-06-26T07:01:27;5.82;;;5.38;;
5999;SDS011;3028;49.468;7.694;2023-06-26T07:03:29;5.50;;;5.10;;
5999;SDS011;3028;49.468;7.694;2023-06-26T07:05:31;5.55;;;5.15;;
5999;SDS011;3028;49.468;7.694;2023-06-26T07:07:34;6.72;;;6.10;;
5999;SDS011;3028;49.468;7.694;2023-06-26T07:09:37;5.80;;;5.40;;
5999;SDS011;3028;49.468;7.694;2023-06-26T07:11:39;6.07;;;5.60;;
5999;SDS011;3028;49.468;7.694;2023-06-26T07:13:41;6.55;;;5.53;;
5999;SDS011;3028;49.468;7.694;2023-06-26T07:15:43;8.30;;;5.68;;
5999;SDS011;3028;49.468;7.694;2023-06-26T07:17:45;5.35;;;4.95;;
5999;SDS011;3028;49.468;7.694;2023-06-26T07:19:47;6.43;;;5.72;;
5999;SDS011;3028;49.468;7.694;2023-06-26T07:21:49;5.82;;;5.40;;
5999;SDS011;3028;49.468;7.694;2023-06-26T07:23:51;5.55;;;5.13;;
5999;SDS011;3028;49.468;7.694;2023-06-26T07:25:53;5.60;;;5.10;;
5999;SDS011;3028;49.468;7.694;2023-06-26T07:27:55;5.28;;;4.78;;
5999;SDS011;3028;49.468;7.694;2023-06-26T07:29:56;5.95;;;5.53;;
5999;SDS011;3028;49.468;7.694;2023-06-26T07:31:58;19.17;;;5.05;;
5999;SDS011;3028;49.468;7.694;2023-06-26T07:34:00;5.82;;;5.32;;
5999;SDS011;3028;49.468;7.694;2023-06-26T07:36:02;7.15;;;5.97;;
5999;SDS011;3028;49.468;7.694;2023-06-26T07:38:03;5.53;;;5.03;;
5999;SDS011;3028;49.468;7.694;2023-06-26T07:40:05;6.38;;;5.78;;
5999;SDS011;3028;49.468;7.694;2023-06-26T07:42:08;6.32;;;5.78;;
5999;SDS011;3028;49.468;7.694;2023-06-26T07:44:09;10.00;;;5.93;;
5999;SDS011;3028;49.468;7.694;2023-06-26T07:46:11;5.78;;;5.28;;
5999;SDS011;3028;49.468;7.694;2023-06-26T07:48:13;7.38;;;6.68;;
5999;SDS011;3028;49.468;7.694;2023-06-26T07:50:15;5.78;;;5.28;;
5999;SDS011;3028;49.468;7.694;2023-06-26T07:52:22;6.15;;;5.60;;
5999;SDS011;3028;49.468;7.694;2023-06-26T07:54:24;5.93;;;5.43;;
5999;SDS011;3028;49.468;7.694;2023-06-26T07:56:26;6.38;;;5.57;;
5999;SDS011;3028;49.468;7.694;2023-06-26T07:58:27;7.00;;;6.40;;
5999;SDS011;3028;49.468;7.694;2023-06-26T08:00:29;5.38;;;4.88;;
5999;SDS011;3028;49.468;7.694;2023-06-26T08:02:31;11.15;;;5.28;;
5999;SDS011;3028;49.468;7.694;2023-06-26T08:04:33;7.20;;;5.93;;
5999;SDS011;3028;49.468;7.694;2023-06-26T08:06:35;7.05;;;5.80;;
5999;SDS011;3028;49.468;7.694;2023-06-26T08:08:41;5.00;;;4.60;;
5999;SDS011;3028;49.468;7.694;2023-06-26T08:10:43;7.00;;;5.28;;
5999;SDS011;3028;49.468;7.694;2023-06-26T08:12:45;5.53;;;4.97;;
5999;SDS011;3028;49.468;7.694;2023-06-26T08:14:48;5.85;;;5.35;;
5999;SDS011;3028;49.468;7.694;2023-06-26T08:16:50;6.13;;;5.63;;
5999;SDS011;3028;49.468;7.694;2023-06-26T08:18:51;7.63;;;6.07;;
5999;SDS011;3028;49.468;7.694;2023-06-26T08:20:54;6.75;;;5.63;;
5999;SDS011;3028;49.468;7.694;2023-06-26T08:22:56;5.60;;;5.18;;
5999;SDS011;3028;49.468;7.694;2023-06-26T08:24:58;6.93;;;5.47;;
5999;SDS011;3028;49.468;7.694;2023-06-26T08:27:00;4.93;;;4.53;;
5999;SDS011;3028;49.468;7.694;2023-06-26T08:29:01;6.25;;;5.07;;
5999;SDS011;3028;49.468;7.694;2023-06-26T08:31:12;5.47;;;4.95;;
5999;SDS011;3028;49.468;7.694;2023-06-26T08:33:14;7.13;;;5.07;;
5999;SDS011;3028;49.468;7.694;2023-06-26T08:35:16;5.10;;;4.70;;
5999;SDS011;3028;49.468;7.694;2023-06-26T08:37:17;5.45;;;5.05;;
5999;SDS011;3028;49.468;7.694;2023-06-26T08:39:19;13.90;;;5.75;;
5999;SDS011;3028;49.468;7.694;2023-06-26T08:41:21;5.00;;;4.40;;
5999;SDS011;3028;49.468;7.694;2023-06-26T08:43:22;11.90;;;5.43;;
5999;SDS011;3028;49.468;7.694;2023-06-26T08:45:25;8.35;;;4.90;;
5999;SDS011;3028;49.468;7.694;2023-06-26T08:47:26;4.93;;;4.53;;
5999;SDS011;3028;49.468;7.694;2023-06-26T08:49:30;4.90;;;4.50;;
5999;SDS011;3028;49.468;7.694;2023-06-26T08:51:37;5.00;;;4.60;;
5999;SDS011;3028;49.468;7.694;2023-06-26T08:55:49;5.30;;;4.78;;
5999;SDS011;3028;49.468;7.694;2023-06-26T08:57:54;6.68;;;4.22;;
5999;SDS011;3028;49.468;7.694;2023-06-26T08:59:56;3.90;;;3.60;;
5999;SDS011;3028;49.468;7.694;2023-06-26T09:01:57;4.40;;;4.10;;
5999;SDS011;3028;49.468;7.694;2023-06-26T09:03:59;4.38;;;3.78;;
5999;SDS011;3028;49.468;7.694;2023-06-26T09:06:01;4.15;;;3.75;;
5999;SDS011;3028;49.468;7.694;2023-06-26T09:08:03;4.55;;;4.07;;
5999;SDS011;3028;49.468;7.694;2023-06-26T09:10:05;7.80;;;4.43;;
5999;SDS011;3028;49.468;7.694;2023-06-26T09:12:08;5.13;;;3.90;;
5999;SDS011;3028;49.468;7.694;2023-06-26T09:14:10;3.88;;;3.15;;
5999;SDS011;3028;49.468;7.694;2023-06-26T09:16:12;3.97;;;3.67;;
5999;SDS011;3028;49.468;7.694;2023-06-26T09:18:16;5.63;;;4.32;;
5999;SDS011;3028;49.468;7.694;2023-06-26T09:20:20;5.22;;;4.15;;
5999;SDS011;3028;49.468;7.694;2023-06-26T09:22:22;3.72;;;3.42;;
5999;SDS011;3028;49.468;7.694;2023-06-26T09:24:24;4.38;;;3.92;;
5999;SDS011;3028;49.468;7.694;2023-06-26T09:26:26;3.97;;;3.60;;
5999;SDS011;3028;49.468;7.694;2023-06-26T09:28:28;3.72;;;3.30;;
5999;SDS011;3028;49.468;7.694;2023-06-26T09:30:33;4.80;;;3.35;;
5999;SDS011;3028;49.468;7.694;2023-06-26T09:32:35;3.60;;;3.20;;
5999;SDS011;3028;49.468;7.694;2023-06-26T09:34:40;3.17;;;2.97;;
5999;SDS011;3028;49.468;7.694;2023-06-26T09:36:42;3.42;;;3.20;;
5999;SDS011;3028;49.468;7.694;2023-06-26T09:38:48;2.95;;;2.75;;
5999;SDS011;3028;49.468;7.694;2023-06-26T09:40:49;5.30;;;2.65;;
5999;SDS011;3028;49.468;7.694;2023-06-26T09:42:51;3.03;;;2.72;;
5999;SDS011;3028;49.468;7.694;2023-06-26T09:44:53;3.15;;;2.85;;
5999;SDS011;3028;49.468;7.694;2023-06-26T09:46:56;3.88;;;3.45;;
5999;SDS011;3028;49.468;7.694;2023-06-26T09:48:58;3.17;;;2.88;;
5999;SDS011;3028;49.468;7.694;2023-06-26T09:51:02;3.72;;;3.42;;
5999;SDS011;3028;49.468;7.694;2023-06-26T09:53:14;3.45;;;2.90;;
5999;SDS011;3028;49.468;7.694;2023-06-26T09:55:16;3.80;;;3.50;;
5999;SDS011;3028;49.468;7.694;2023-06-26T09:57:24;6.28;;;4.13;;
5999;SDS011;3028;49.468;7.694;2023-06-26T09:59:26;3.97;;;3.58;;
5999;SDS011;3028;49.468;7.694;2023-06-26T10:01:28;5.65;;;3.80;;
5999;SDS011;3028;49.468;7.694;2023-06-26T10:03:31;5.97;;;3.60;;
5999;SDS011;3028;49.468;7.694;2023-06-26T10:05:33;4.45;;;3.92;;
5999;SDS011;3028;49.468;7.694;2023-06-26T10:07:35;3.88;;;3.00;;
5999;SDS011;3028;49.468;7.694;2023-06-26T10:09:38;4.57;;;2.92;;
5999;SDS011;3028;49.468;7.694;2023-06-26T10:14:01;3.60;;;3.28;;
5999;SDS011;3028;49.468;7.694;2023-06-26T10:16:19;3.97;;;2.92;;
5999;SDS011;3028;49.468;7.694;2023-06-26T10:18:25;3.35;;;3.05;;
5999;SDS011;3028;49.468;7.694;2023-06-26T10:20:28;5.15;;;2.22;;
5999;SDS011;3028;49.468;7.694;2023-06-26T10:22:31;4.50;;;2.65;;
5999;SDS011;3028;49.468;7.694;2023-06-26T10:24:35;3.08;;;2.78;;
5999;SDS011;3028;49.468;7.694;2023-06-26T10:26:39;7.43;;;2.47;;
5999;SDS011;3028;49.468;7.694;2023-06-26T10:28:43;2.88;;;2.65;;
5999;SDS011;3028;49.468;7.694;2023-06-26T10:30:47;3.15;;;2.65;;
5999;SDS011;3028;49.468;7.694;2023-06-26T10:32:50;4.63;;;2.72;;
5999;SDS011;3028;49.468;7.694;2023-06-26T10:34:52;3.10;;;2.30;;
5999;SDS011;3028;49.468;7.694;2023-06-26T10:36:58;4.57;;;2.75;;
5999;SDS011;3028;49.468;7.694;2023-06-26T10:39:04;3.50;;;3.20;;
5999;SDS011;3028;49.468;7.694;2023-06-26T10:41:10;3.70;;;3.40;;
5999;SDS011;3028;49.468;7.694;2023-06-26T10:43:13;4.35;;;3.20;;
5999;SDS011;3028;49.468;7.694;2023-06-26T10:45:16;4.03;;;3.70;;
5999;SDS011;3028;49.468;7.694;2023-06-26T10:47:30;3.17;;;2.92;;
5999;SDS011;3028;49.468;7.694;2023-06-26T10:49:34;3.58;;;3.20;;
5999;SDS011;3028;49.468;7.694;2023-06-26T10:51:37;10.88;;;3.85;;
5999;SDS011;3028;49.468;7.694;2023-06-26T10:53:38;3.50;;;3.20;;
5999;SDS011;3028;49.468;7.694;2023-06-26T10:55:42;3.80;;;2.78;;
5999;SDS011;3028;49.468;7.694;2023-06-26T10:57:50;4.40;;;3.33;;
5999;SDS011;3028;49.468;7.694;2023-06-26T11:00:09;8.15;;;3.80;;
5999;SDS011;3028;49.468;7.694;2023-06-26T11:02:14;3.42;;;2.75;;
5999;SDS011;3028;49.468;7.694;2023-06-26T11:06:46;3.85;;;3.45;;
5999;SDS011;3028;49.468;7.694;2023-06-26T11:08:51;4.30;;;3.08;;
5999;SDS011;3028;49.468;7.694;2023-06-26T11:10:59;3.42;;;2.72;;
5999;SDS011;3028;49.468;7.694;2023-06-26T11:13:01;7.60;;;2.85;;
5999;SDS011;3028;49.468;7.694;2023-06-26T11:15:09;6.38;;;2.75;;
5999;SDS011;3028;49.468;7.694;2023-06-26T11:17:15;5.30;;;3.33;;
5999;SDS011;3028;49.468;7.694;2023-06-26T11:19:20;4.70;;;3.30;;
5999;SDS011;3028;49.468;7.694;2023-06-26T11:21:22;4.00;;;3.08;;
5999;SDS011;3028;49.468;7.694;2023-06-26T11:23:24;3.50;;;2.30;;
5999;SDS011;3028;49.468;7.694;2023-06-26T11:25:26;3.47;;;3.17;;
5999;SDS011;3028;49.468;7.694;2023-06-26T11:27:38;3.15;;;2.83;;
5999;SDS011;3028;49.468;7.694;2023-06-26T11:29:47;4.82;;;4.43;;
5999;SDS011;3028;49.468;7.694;2023-06-26T11:31:57;6.30;;;4.18;;
5999;SDS011;3028;49.468;7.694;2023-06-26T11:34:03;4.32;;;3.55;;
5999;SDS011;3028;49.468;7.694;2023-06-26T11:36:10;5.00;;;4.20;;
5999;SDS011;3028;49.468;7.694;2023-06-26T11:38:12;3.85;;;3.53;;
5999;SDS011;3028;49.468;7.694;2023-06-26T11:40:19;3.63;;;3.33;;
5999;SDS011;3028;49.468;7.694;2023-06-26T11:42:23;3.50;;;3.20;;
5999;SDS011;3028;49.468;7.694;2023-06-26T11:44:29;4.43;;;3.97;;
5999;SDS011;3028;49.468;7.694;2023-06-26T11:46:31;5.72;;;2.88;;
5999;SDS011;3028;49.468;7.694;2023-06-26T11:48:33;2.83;;;2.55;;
5999;SDS011;3028;49.468;7.694;2023-06-26T11:50:36;4.97;;;3.33;;
5999;SDS011;3028;49.468;7.694;2023-06-26T11:52:41;4.20;;;3.80;;
5999;SDS011;3028;49.468;7.694;2023-06-26T11:54:43;4.65;;;2.85;;
5999;SDS011;3028;49.468;7.694;2023-06-26T11:56:54;5.28;;;2.95;;
5999;SDS011;3028;49.468;7.694;2023-06-26T12:01:02;2.78;;;2.45;;
5999;SDS011;3028;49.468;7.694;2023-06-26T12:03:04;4.35;;;2.75;;
5999;SDS011;3028;49.468;7.694;2023-06-26T12:05:07;4.05;;;2.20;;
5999;SDS011;3028;49.468;7.694;2023-06-26T12:07:09;2.83;;;2.05;;
5999;SDS011;3028;49.468;7.694;2023-06-26T12:09:11;2.20;;;2.00;;
5999;SDS011;3028;49.468;7.694;2023-06-26T12:11:14;2.40;;;1.70;;
5999;SDS011;3028;49.468;7.694;2023-06-26T12:13:16;8.15;;;2.25;;
5999;SDS011;3028;49.468;7.694;2023-06-26T12:15:19;2.35;;;2.15;;
5999;SDS011;3028;49.468;7.694;2023-06-26T12:17:22;12.45;;;1.98;;
5999;SDS011;3028;49.468;7.694;2023-06-26T12:19:25;4.75;;;1.90;;
5999;SDS011;3028;49.468;7.694;2023-06-26T12:23:43;5.80;;;1.50;;
5999;SDS011;3028;49.468;7.694;2023-06-26T12:25:44;2.20;;;1.63;;
5999;SDS011;3028;49.468;7.694;2023-06-26T12:27:48;2.67;;;1.60;;
5999;SDS011;3028;49.468;7.694;2023-06-26T12:29:51;2.72;;;1.23;;
5999;SDS011;3028;49.468;7.694;2023-06-26T12:31:55;1.35;;;1.00;;
5999;SDS011;3028;49.468;7.694;2023-06-26T12:33:56;1.58;;;1.00;;
5999;SDS011;3028;49.468;7.694;2023-06-26T12:35:58;3.30;;;1.20;;
5999;SDS011;3028;49.468;7.694;2023-06-26T12:38:00;1.58;;;1.02;;
5999;SDS011;3028;49.468;7.694;2023-06-26T12:40:02;2.05;;;0.90;;
5999;SDS011;3028;49.468;7.694;2023-06-26T12:42:07;1.80;;;1.25;;
5999;SDS011;3028;49.468;7.694;2023-06-26T12:44:15;2.10;;;1.25;;
5999;SDS011;3028;49.468;7.694;2023-06-26T12:46:18;2.95;;;1.08;;
5999;SDS011;3028;49.468;7.694;2023-06-26T12:48:20;2.25;;;1.02;;
5999;SDS011;3028;49.468;7.694;2023-06-26T12:50:22;3.33;;;1.25;;
5999;SDS011;3028;49.468;7.694;2023-06-26T12:52:23;1.75;;;1.38;;
5999;SDS011;3028;49.468;7.694;2023-06-26T12:54:25;1.77;;;1.05;;
5999;SDS011;3028;49.468;7.694;2023-06-26T12:56:27;2.30;;;1.13;;
5999;SDS011;3028;49.468;7.694;2023-06-26T12:58:29;2.80;;;1.20;;